sensor_id;sensor_type;location;lat;lon;timestamp;P1;durP1;ratioP1;P2;durP2;ratioP2
815;SDS011;25928;51.062;13.752;2023-04-01T00:01:03;2.97;;;0.93;;
815;SDS011;25928;51.062;13.752;2023-04-01T00:03:30;2.10;;;0.73;;
815;SDS011;25928;51.062;13.752;2023-04-01T00:05:58;2.73;;;0.90;;
815;SDS011;25928;51.062;13.752;2023-04-01T00:08:24;2.17;;;0.90;;
815;SDS011;25928;51.062;13.752;2023-04-01T00:10:51;1.87;;;0.80;;
815;SDS011;25928;51.062;13.752;2023-04-01T00:13:17;2.00;;;1.00;;
815;SDS011;25928;51.062;13.752;2023-04-01T00:15:42;1.47;;;0.70;;
815;SDS011;25928;51.062;13.752;2023-04-01T00:18:09;1.33;;;0.70;;
815;SDS011;25928;51.062;13.752;2023-04-01T00:20:35;2.87;;;1.20;;
815;SDS011;25928;51.062;13.752;2023-04-01T00:23:01;2.70;;;0.80;;
815;SDS011;25928;51.062;13.752;2023-04-01T00:25:26;3.33;;;0.93;;
815;SDS011;25928;51.062;13.752;2023-04-01T00:27:52;4.40;;;0.87;;
815;SDS011;25928;51.062;13.752;2023-04-01T00:30:18;1.60;;;0.80;;
815;SDS011;25928;51.062;13.752;2023-04-01T00:32:43;2.03;;;0.70;;
815;SDS011;25928;51.062;13.752;2023-04-01T00:35:09;1.07;;;0.70;;
815;SDS011;25928;51.062;13.752;2023-04-01T00:37:37;1.70;;;0.90;;
815;SDS011;25928;51.062;13.752;2023-04-01T00:40:05;1.40;;;0.63;;
815;SDS011;25928;51.062;13.752;2023-04-01T00:42:32;3.10;;;1.03;;
815;SDS011;25928;51.062;13.752;2023-04-01T00:44:58;2.30;;;0.83;;
815;SDS011;25928;51.062;13.752;2023-04-01T00:47:43;1.40;;;0.63;;
815;SDS011;25928;51.062;13.752;2023-04-01T00:50:09;2.20;;;0.90;;
815;SDS011;25928;51.062;13.752;2023-04-01T00:52:35;3.30;;;1.17;;
815;SDS011;25928;51.062;13.752;2023-04-01T00:55:01;1.40;;;1.07;;
815;SDS011;25928;51.062;13.752;2023-04-01T00:57:31;1.60;;;0.70;;
815;SDS011;25928;51.062;13.752;2023-04-01T01:00:02;2.93;;;1.00;;
815;SDS011;25928;51.062;13.752;2023-04-01T01:02:32;2.83;;;0.80;;
815;SDS011;25928;51.062;13.752;2023-04-01T01:04:59;2.20;;;1.10;;
815;SDS011;25928;51.062;13.752;2023-04-01T01:10:15;1.70;;;0.83;;
815;SDS011;25928;51.062;13.752;2023-04-01T01:15:49;4.93;;;1.43;;
815;SDS011;25928;51.062;13.752;2023-04-01T01:37:37;2.10;;;0.77;;
815;SDS011;25928;51.062;13.752;2023-04-01T01:40:06;2.60;;;0.90;;
815;SDS011;25928;51.062;13.752;2023-04-01T01:42:35;1.73;;;0.80;;
815;SDS011;25928;51.062;13.752;2023-04-01T01:45:03;1.57;;;0.80;;
815;SDS011;25928;51.062;13.752;2023-04-01T01:47:31;1.83;;;0.90;;
815;SDS011;25928;51.062;13.752;2023-04-01T01:49:58;2.33;;;0.80;;
815;SDS011;25928;51.062;13.752;2023-04-01T01:52:27;4.00;;;0.90;;
815;SDS011;25928;51.062;13.752;2023-04-01T01:54:54;1.60;;;0.93;;
815;SDS011;25928;51.062;13.752;2023-04-01T01:57:31;2.70;;;1.50;;
815;SDS011;25928;51.062;13.752;2023-04-01T02:00:06;3.93;;;0.90;;
815;SDS011;25928;51.062;13.752;2023-04-01T02:02:43;4.50;;;1.13;;
815;SDS011;25928;51.062;13.752;2023-04-01T02:05:15;2.87;;;1.00;;
815;SDS011;25928;51.062;13.752;2023-04-01T02:07:48;0.80;;;0.80;;
815;SDS011;25928;51.062;13.752;2023-04-01T02:10:22;2.10;;;0.80;;
815;SDS011;25928;51.062;13.752;2023-04-01T02:12:51;2.50;;;0.97;;
815;SDS011;25928;51.062;13.752;2023-04-01T02:15:22;2.20;;;0.80;;
815;SDS011;25928;51.062;13.752;2023-04-01T02:17:52;2.50;;;1.17;;
815;SDS011;25928;51.062;13.752;2023-04-01T02:20:19;2.20;;;0.97;;
815;SDS011;25928;51.062;13.752;2023-04-01T02:22:48;2.30;;;1.07;;
815;SDS011;25928;51.062;13.752;2023-04-01T02:25:20;3.23;;;0.90;;
815;SDS011;25928;51.062;13.752;2023-04-01T02:27:54;1.40;;;0.80;;
815;SDS011;25928;51.062;13.752;2023-04-01T02:30:21;2.70;;;0.90;;
815;SDS011;25928;51.062;13.752;2023-04-01T02:32:46;1.70;;;1.00;;
815;SDS011;25928;51.062;13.752;2023-04-01T02:35:14;3.30;;;1.20;;
815;SDS011;25928;51.062;13.752;2023-04-01T02:37:42;3.80;;;0.97;;
815;SDS011;25928;51.062;13.752;2023-04-01T02:40:11;2.70;;;0.90;;
815;SDS011;25928;51.062;13.752;2023-04-01T02:42:38;1.67;;;0.80;;
815;SDS011;25928;51.062;13.752;2023-04-01T02:45:04;1.53;;;0.70;;
815;SDS011;25928;51.062;13.752;2023-04-01T02:47:30;1.90;;;1.10;;
815;SDS011;25928;51.062;13.752;2023-04-01T02:49:56;5.53;;;0.90;;
815;SDS011;25928;51.062;13.752;2023-04-01T02:52:25;4.43;;;1.20;;
815;SDS011;25928;51.062;13.752;2023-04-01T02:54:51;2.53;;;1.40;;
815;SDS011;25928;51.062;13.752;2023-04-01T02:57:17;3.70;;;1.00;;
815;SDS011;25928;51.062;13.752;2023-04-01T02:59:43;3.17;;;1.33;;
815;SDS011;25928;51.062;13.752;2023-04-01T03:02:08;3.37;;;0.80;;
815;SDS011;25928;51.062;13.752;2023-04-01T03:04:34;5.90;;;1.13;;
815;SDS011;25928;51.062;13.752;2023-04-01T03:07:00;3.00;;;0.70;;
815;SDS011;25928;51.062;13.752;2023-04-01T03:09:26;2.73;;;1.03;;
815;SDS011;25928;51.062;13.752;2023-04-01T03:11:52;2.37;;;0.80;;
815;SDS011;25928;51.062;13.752;2023-04-01T03:14:17;2.23;;;1.10;;
815;SDS011;25928;51.062;13.752;2023-04-01T03:16:43;4.73;;;1.10;;
815;SDS011;25928;51.062;13.752;2023-04-01T03:19:08;1.87;;;0.87;;
815;SDS011;25928;51.062;13.752;2023-04-01T03:21:34;3.27;;;1.10;;
815;SDS011;25928;51.062;13.752;2023-04-01T03:24:00;2.90;;;1.10;;
815;SDS011;25928;51.062;13.752;2023-04-01T03:26:25;3.53;;;1.90;;
815;SDS011;25928;51.062;13.752;2023-04-01T03:28:55;1.33;;;0.83;;
815;SDS011;25928;51.062;13.752;2023-04-01T03:31:21;2.50;;;0.80;;
815;SDS011;25928;51.062;13.752;2023-04-01T03:33:47;4.43;;;1.50;;
815;SDS011;25928;51.062;13.752;2023-04-01T03:36:13;2.80;;;1.20;;
815;SDS011;25928;51.062;13.752;2023-04-01T03:38:39;4.70;;;0.90;;
815;SDS011;25928;51.062;13.752;2023-04-01T03:41:06;4.23;;;1.70;;
815;SDS011;25928;51.062;13.752;2023-04-01T03:43:32;6.00;;;0.97;;
815;SDS011;25928;51.062;13.752;2023-04-01T03:45:58;2.07;;;0.90;;
815;SDS011;25928;51.062;13.752;2023-04-01T03:48:24;4.33;;;1.33;;
815;SDS011;25928;51.062;13.752;2023-04-01T03:50:50;3.60;;;0.90;;
815;SDS011;25928;51.062;13.752;2023-04-01T03:53:17;3.23;;;1.00;;
815;SDS011;25928;51.062;13.752;2023-04-01T03:55:43;1.07;;;0.97;;
815;SDS011;25928;51.062;13.752;2023-04-01T03:58:09;1.67;;;0.80;;
815;SDS011;25928;51.062;13.752;2023-04-01T04:00:35;1.07;;;0.80;;
815;SDS011;25928;51.062;13.752;2023-04-01T04:03:01;3.37;;;1.07;;
815;SDS011;25928;51.062;13.752;2023-04-01T04:05:26;5.70;;;0.93;;
815;SDS011;25928;51.062;13.752;2023-04-01T04:07:52;4.60;;;2.20;;
815;SDS011;25928;51.062;13.752;2023-04-01T04:10:19;1.63;;;1.20;;
815;SDS011;25928;51.062;13.752;2023-04-01T04:12:45;3.00;;;1.10;;
815;SDS011;25928;51.062;13.752;2023-04-01T04:15:11;2.67;;;1.00;;
815;SDS011;25928;51.062;13.752;2023-04-01T04:17:37;7.80;;;0.90;;
815;SDS011;25928;51.062;13.752;2023-04-01T04:20:03;2.93;;;1.10;;
815;SDS011;25928;51.062;13.752;2023-04-01T04:22:29;0.97;;;0.87;;
815;SDS011;25928;51.062;13.752;2023-04-01T04:24:55;2.47;;;1.10;;
815;SDS011;25928;51.062;13.752;2023-04-01T04:27:20;1.33;;;0.87;;
815;SDS011;25928;51.062;13.752;2023-04-01T04:29:46;2.43;;;1.17;;
815;SDS011;25928;51.062;13.752;2023-04-01T04:32:12;2.10;;;0.83;;
815;SDS011;25928;51.062;13.752;2023-04-01T04:34:37;3.47;;;0.90;;
815;SDS011;25928;51.062;13.752;2023-04-01T04:37:03;6.07;;;0.80;;
815;SDS011;25928;51.062;13.752;2023-04-01T04:39:29;2.40;;;1.20;;
815;SDS011;25928;51.062;13.752;2023-04-01T04:41:55;2.00;;;0.87;;
815;SDS011;25928;51.062;13.752;2023-04-01T04:44:21;1.87;;;0.93;;
815;SDS011;25928;51.062;13.752;2023-04-01T04:46:46;2.73;;;0.90;;
815;SDS011;25928;51.062;13.752;2023-04-01T04:49:12;1.33;;;0.70;;
815;SDS011;25928;51.062;13.752;2023-04-01T04:51:38;1.40;;;0.80;;
815;SDS011;25928;51.062;13.752;2023-04-01T04:54:04;2.97;;;0.77;;
815;SDS011;25928;51.062;13.752;2023-04-01T04:56:31;2.77;;;0.90;;
815;SDS011;25928;51.062;13.752;2023-04-01T04:58:57;2.63;;;1.03;;
815;SDS011;25928;51.062;13.752;2023-04-01T05:01:23;1.07;;;0.70;;
815;SDS011;25928;51.062;13.752;2023-04-01T05:03:50;2.00;;;0.80;;
815;SDS011;25928;51.062;13.752;2023-04-01T05:06:16;2.43;;;0.83;;
815;SDS011;25928;51.062;13.752;2023-04-01T05:08:43;2.93;;;0.93;;
815;SDS011;25928;51.062;13.752;2023-04-01T05:11:14;1.87;;;0.80;;
815;SDS011;25928;51.062;13.752;2023-04-01T05:13:44;2.50;;;0.80;;
815;SDS011;25928;51.062;13.752;2023-04-01T05:16:11;2.27;;;0.80;;
815;SDS011;25928;51.062;13.752;2023-04-01T05:18:38;2.20;;;0.90;;
815;SDS011;25928;51.062;13.752;2023-04-01T05:21:04;1.43;;;0.80;;
815;SDS011;25928;51.062;13.752;2023-04-01T05:23:31;2.80;;;0.97;;
815;SDS011;25928;51.062;13.752;2023-04-01T05:25:58;3.67;;;0.77;;
815;SDS011;25928;51.062;13.752;2023-04-01T05:28:27;1.43;;;0.90;;
815;SDS011;25928;51.062;13.752;2023-04-01T05:30:52;1.50;;;0.80;;
815;SDS011;25928;51.062;13.752;2023-04-01T05:33:18;2.00;;;0.80;;
815;SDS011;25928;51.062;13.752;2023-04-01T05:35:43;2.83;;;0.90;;
815;SDS011;25928;51.062;13.752;2023-04-01T05:38:09;1.97;;;1.03;;
815;SDS011;25928;51.062;13.752;2023-04-01T05:40:35;1.60;;;0.80;;
815;SDS011;25928;51.062;13.752;2023-04-01T05:43:01;2.50;;;0.90;;
815;SDS011;25928;51.062;13.752;2023-04-01T05:45:27;1.40;;;0.60;;
815;SDS011;25928;51.062;13.752;2023-04-01T05:47:54;1.40;;;0.80;;
815;SDS011;25928;51.062;13.752;2023-04-01T05:50:20;1.93;;;0.90;;
815;SDS011;25928;51.062;13.752;2023-04-01T05:52:45;3.47;;;1.23;;
815;SDS011;25928;51.062;13.752;2023-04-01T05:55:11;6.63;;;1.83;;
815;SDS011;25928;51.062;13.752;2023-04-01T05:57:37;2.93;;;1.00;;
815;SDS011;25928;51.062;13.752;2023-04-01T06:00:03;5.33;;;1.83;;
815;SDS011;25928;51.062;13.752;2023-04-01T06:02:29;5.40;;;1.37;;
815;SDS011;25928;51.062;13.752;2023-04-01T06:07:45;3.50;;;1.63;;
815;SDS011;25928;51.062;13.752;2023-04-01T06:10:15;3.70;;;0.80;;
815;SDS011;25928;51.062;13.752;2023-04-01T06:20:50;3.87;;;1.13;;
815;SDS011;25928;51.062;13.752;2023-04-01T06:26:02;1.50;;;0.70;;
815;SDS011;25928;51.062;13.752;2023-04-01T06:39:36;1.47;;;0.80;;
815;SDS011;25928;51.062;13.752;2023-04-01T06:55:42;2.20;;;1.00;;
815;SDS011;25928;51.062;13.752;2023-04-01T07:00:48;2.60;;;0.70;;
815;SDS011;25928;51.062;13.752;2023-04-01T07:05:46;2.30;;;0.60;;
815;SDS011;25928;51.062;13.752;2023-04-01T07:08:13;1.60;;;1.10;;
815;SDS011;25928;51.062;13.752;2023-04-01T07:11:01;0.60;;;0.60;;
815;SDS011;25928;51.062;13.752;2023-04-01T07:16:36;1.60;;;0.90;;
815;SDS011;25928;51.062;13.752;2023-04-01T07:25:05;3.30;;;1.17;;
815;SDS011;25928;51.062;13.752;2023-04-01T07:27:46;3.37;;;0.97;;
815;SDS011;25928;51.062;13.752;2023-04-01T07:30:19;3.73;;;0.97;;
815;SDS011;25928;51.062;13.752;2023-04-01T07:35:35;1.60;;;0.80;;
815;SDS011;25928;51.062;13.752;2023-04-01T07:41:23;1.60;;;0.53;;
815;SDS011;25928;51.062;13.752;2023-04-01T07:44:44;2.07;;;1.10;;
815;SDS011;25928;51.062;13.752;2023-04-01T07:58:09;3.33;;;0.63;;
815;SDS011;25928;51.062;13.752;2023-04-01T08:00:46;1.37;;;0.90;;
815;SDS011;25928;51.062;13.752;2023-04-01T08:05:47;3.77;;;0.87;;
815;SDS011;25928;51.062;13.752;2023-04-01T08:11:36;3.03;;;1.67;;
815;SDS011;25928;51.062;13.752;2023-04-01T08:19:56;2.50;;;0.90;;
815;SDS011;25928;51.062;13.752;2023-04-01T08:22:32;1.47;;;0.60;;
815;SDS011;25928;51.062;13.752;2023-04-01T08:25:05;1.57;;;0.90;;
815;SDS011;25928;51.062;13.752;2023-04-01T08:27:37;1.27;;;0.77;;
815;SDS011;25928;51.062;13.752;2023-04-01T08:30:20;1.40;;;0.60;;
815;SDS011;25928;51.062;13.752;2023-04-01T08:32:53;1.90;;;0.50;;
815;SDS011;25928;51.062;13.752;2023-04-01T08:38:44;0.90;;;0.67;;
815;SDS011;25928;51.062;13.752;2023-04-01T08:41:34;1.90;;;0.90;;
815;SDS011;25928;51.062;13.752;2023-04-01T09:04:25;0.77;;;0.60;;
815;SDS011;25928;51.062;13.752;2023-04-01T09:06:59;1.77;;;0.80;;
815;SDS011;25928;51.062;13.752;2023-04-01T09:20:41;2.50;;;0.90;;
815;SDS011;25928;51.062;13.752;2023-04-01T09:28:33;1.00;;;0.53;;
815;SDS011;25928;51.062;13.752;2023-04-01T09:33:42;2.20;;;0.60;;
815;SDS011;25928;51.062;13.752;2023-04-01T09:44:00;1.97;;;0.80;;
815;SDS011;25928;51.062;13.752;2023-04-01T09:49:42;0.80;;;0.67;;
815;SDS011;25928;51.062;13.752;2023-04-01T09:55:13;2.10;;;0.93;;
815;SDS011;25928;51.062;13.752;2023-04-01T10:09:30;1.00;;;0.90;;
815;SDS011;25928;51.062;13.752;2023-04-01T10:12:48;2.00;;;0.70;;
815;SDS011;25928;51.062;13.752;2023-04-01T10:36:50;0.80;;;0.73;;
815;SDS011;25928;51.062;13.752;2023-04-01T10:39:31;3.03;;;0.60;;
815;SDS011;25928;51.062;13.752;2023-04-01T10:42:14;1.40;;;0.70;;
815;SDS011;25928;51.062;13.752;2023-04-01T10:45:30;1.00;;;0.43;;
815;SDS011;25928;51.062;13.752;2023-04-01T11:33:50;2.10;;;1.00;;
815;SDS011;25928;51.062;13.752;2023-04-01T11:36:38;1.80;;;0.90;;
815;SDS011;25928;51.062;13.752;2023-04-01T11:39:17;2.23;;;1.23;;
815;SDS011;25928;51.062;13.752;2023-04-01T11:42:14;1.70;;;1.23;;
815;SDS011;25928;51.062;13.752;2023-04-01T11:44:51;1.10;;;0.77;;
815;SDS011;25928;51.062;13.752;2023-04-01T11:47:40;1.40;;;0.80;;
815;SDS011;25928;51.062;13.752;2023-04-01T11:55:56;1.53;;;0.70;;
815;SDS011;25928;51.062;13.752;2023-04-01T12:06:57;0.60;;;0.50;;
815;SDS011;25928;51.062;13.752;2023-04-01T12:09:49;1.10;;;0.50;;
815;SDS011;25928;51.062;13.752;2023-04-01T12:12:50;1.13;;;0.93;;
815;SDS011;25928;51.062;13.752;2023-04-01T12:18:40;1.00;;;0.60;;
815;SDS011;25928;51.062;13.752;2023-04-01T12:32:15;1.60;;;1.50;;
815;SDS011;25928;51.062;13.752;2023-04-01T12:37:59;3.77;;;1.00;;
815;SDS011;25928;51.062;13.752;2023-04-01T12:56:27;3.60;;;1.17;;
815;SDS011;25928;51.062;13.752;2023-04-01T12:59:22;1.93;;;1.00;;
815;SDS011;25928;51.062;13.752;2023-04-01T13:09:56;2.77;;;1.70;;
815;SDS011;25928;51.062;13.752;2023-04-01T13:20:39;1.40;;;1.13;;
815;SDS011;25928;51.062;13.752;2023-04-01T13:23:19;2.10;;;1.03;;
815;SDS011;25928;51.062;13.752;2023-04-01T13:28:36;2.03;;;0.60;;
815;SDS011;25928;51.062;13.752;2023-04-01T13:31:20;0.90;;;0.43;;
815;SDS011;25928;51.062;13.752;2023-04-01T13:39:44;0.70;;;0.40;;
815;SDS011;25928;51.062;13.752;2023-04-01T13:56:14;1.63;;;0.70;;
815;SDS011;25928;51.062;13.752;2023-04-01T13:58:57;2.70;;;1.40;;
815;SDS011;25928;51.062;13.752;2023-04-01T14:04:47;1.93;;;1.00;;
815;SDS011;25928;51.062;13.752;2023-04-01T14:07:37;1.00;;;0.70;;
815;SDS011;25928;51.062;13.752;2023-04-01T14:13:18;1.03;;;0.80;;
815;SDS011;25928;51.062;13.752;2023-04-01T14:15:52;0.57;;;0.50;;
815;SDS011;25928;51.062;13.752;2023-04-01T14:23:58;1.37;;;0.80;;
815;SDS011;25928;51.062;13.752;2023-04-01T14:29:36;1.20;;;0.70;;
815;SDS011;25928;51.062;13.752;2023-04-01T14:35:17;0.73;;;0.73;;
815;SDS011;25928;51.062;13.752;2023-04-01T14:40:55;1.00;;;0.50;;
815;SDS011;25928;51.062;13.752;2023-04-01T14:51:41;0.80;;;0.73;;
815;SDS011;25928;51.062;13.752;2023-04-01T14:54:17;1.10;;;0.70;;
815;SDS011;25928;51.062;13.752;2023-04-01T14:57:34;4.20;;;3.27;;
815;SDS011;25928;51.062;13.752;2023-04-01T15:13:13;1.00;;;0.30;;
815;SDS011;25928;51.062;13.752;2023-04-01T15:15:59;0.60;;;0.50;;
815;SDS011;25928;51.062;13.752;2023-04-01T15:21:19;0.37;;;0.30;;
815;SDS011;25928;51.062;13.752;2023-04-01T15:37:26;0.80;;;0.80;;
815;SDS011;25928;51.062;13.752;2023-04-01T15:39:57;0.60;;;0.40;;
815;SDS011;25928;51.062;13.752;2023-04-01T15:45:26;2.00;;;0.77;;
815;SDS011;25928;51.062;13.752;2023-04-01T15:51:19;1.57;;;0.80;;
815;SDS011;25928;51.062;13.752;2023-04-01T16:00:09;0.90;;;0.60;;
815;SDS011;25928;51.062;13.752;2023-04-01T16:02:49;2.13;;;1.00;;
815;SDS011;25928;51.062;13.752;2023-04-01T16:11:54;1.07;;;0.70;;
815;SDS011;25928;51.062;13.752;2023-04-01T16:23:04;1.90;;;0.67;;
815;SDS011;25928;51.062;13.752;2023-04-01T16:25:40;1.00;;;0.70;;
815;SDS011;25928;51.062;13.752;2023-04-01T16:47:31;0.93;;;0.83;;
815;SDS011;25928;51.062;13.752;2023-04-01T16:50:22;1.40;;;0.60;;
815;SDS011;25928;51.062;13.752;2023-04-01T16:53:14;1.67;;;0.87;;
815;SDS011;25928;51.062;13.752;2023-04-01T16:55:47;1.73;;;1.10;;
815;SDS011;25928;51.062;13.752;2023-04-01T16:58:18;1.77;;;0.90;;
815;SDS011;25928;51.062;13.752;2023-04-01T17:01:44;1.07;;;0.70;;
815;SDS011;25928;51.062;13.752;2023-04-01T17:03:51;1.67;;;0.70;;
815;SDS011;25928;51.062;13.752;2023-04-01T17:09:04;1.90;;;0.80;;
815;SDS011;25928;51.062;13.752;2023-04-01T17:12:01;0.93;;;0.70;;
815;SDS011;25928;51.062;13.752;2023-04-01T17:25:35;1.20;;;1.00;;
815;SDS011;25928;51.062;13.752;2023-04-01T17:28:15;1.20;;;1.00;;
815;SDS011;25928;51.062;13.752;2023-04-01T17:41:54;2.87;;;1.57;;
815;SDS011;25928;51.062;13.752;2023-04-01T17:50:07;3.43;;;1.97;;
815;SDS011;25928;51.062;13.752;2023-04-01T18:00:37;2.40;;;1.67;;
815;SDS011;25928;51.062;13.752;2023-04-01T18:06:34;2.37;;;1.67;;
815;SDS011;25928;51.062;13.752;2023-04-01T18:16:44;1.70;;;1.40;;
815;SDS011;25928;51.062;13.752;2023-04-01T18:30:46;1.60;;;1.50;;
815;SDS011;25928;51.062;13.752;2023-04-01T18:33:34;3.43;;;2.30;;
815;SDS011;25928;51.062;13.752;2023-04-01T18:39:00;2.93;;;2.13;;
815;SDS011;25928;51.062;13.752;2023-04-01T18:41:34;2.70;;;2.13;;
815;SDS011;25928;51.062;13.752;2023-04-01T18:44:25;1.83;;;1.70;;
815;SDS011;25928;51.062;13.752;2023-04-01T18:46:59;4.27;;;3.60;;
815;SDS011;25928;51.062;13.752;2023-04-01T18:52:53;5.80;;;4.87;;
815;SDS011;25928;51.062;13.752;2023-04-01T18:57:54;6.33;;;4.90;;
815;SDS011;25928;51.062;13.752;2023-04-01T19:00:39;5.90;;;4.70;;
815;SDS011;25928;51.062;13.752;2023-04-01T19:03:21;6.40;;;4.90;;
815;SDS011;25928;51.062;13.752;2023-04-01T19:05:53;5.47;;;4.97;;
815;SDS011;25928;51.062;13.752;2023-04-01T19:08:26;5.13;;;4.17;;
815;SDS011;25928;51.062;13.752;2023-04-01T19:16:51;6.00;;;3.87;;
815;SDS011;25928;51.062;13.752;2023-04-01T19:19:29;4.23;;;3.00;;
815;SDS011;25928;51.062;13.752;2023-04-01T19:22:27;3.67;;;3.23;;
815;SDS011;25928;51.062;13.752;2023-04-01T19:35:17;9.43;;;3.73;;
815;SDS011;25928;51.062;13.752;2023-04-01T19:37:56;5.40;;;3.70;;
815;SDS011;25928;51.062;13.752;2023-04-01T19:44:01;3.87;;;3.57;;
815;SDS011;25928;51.062;13.752;2023-04-01T19:52:20;6.57;;;5.37;;
815;SDS011;25928;51.062;13.752;2023-04-01T19:57:54;4.77;;;4.37;;
815;SDS011;25928;51.062;13.752;2023-04-01T20:03:20;5.33;;;4.83;;
815;SDS011;25928;51.062;13.752;2023-04-01T20:14:10;4.57;;;4.17;;
815;SDS011;25928;51.062;13.752;2023-04-01T20:45:17;2.90;;;2.53;;
815;SDS011;25928;51.062;13.752;2023-04-01T21:01:33;8.40;;;7.00;;
815;SDS011;25928;51.062;13.752;2023-04-01T21:04:27;2.93;;;2.73;;
815;SDS011;25928;51.062;13.752;2023-04-01T21:16:02;3.37;;;3.07;;
815;SDS011;25928;51.062;13.752;2023-04-01T21:26:42;4.57;;;4.17;;
815;SDS011;25928;51.062;13.752;2023-04-01T21:35:00;4.83;;;4.20;;
815;SDS011;25928;51.062;13.752;2023-04-01T21:37:42;4.60;;;4.10;;
815;SDS011;25928;51.062;13.752;2023-04-01T21:57:33;5.57;;;1.77;;
815;SDS011;25928;51.062;13.752;2023-04-01T22:06:19;6.43;;;2.70;;
815;SDS011;25928;51.062;13.752;2023-04-01T22:09:00;3.40;;;2.50;;
815;SDS011;25928;51.062;13.752;2023-04-01T22:11:42;3.20;;;2.17;;
815;SDS011;25928;51.062;13.752;2023-04-01T22:14:24;3.73;;;2.80;;
815;SDS011;25928;51.062;13.752;2023-04-01T22:16:57;4.93;;;2.87;;
815;SDS011;25928;51.062;13.752;2023-04-01T22:32:50;4.23;;;3.83;;
815;SDS011;25928;51.062;13.752;2023-04-01T22:48:54;3.47;;;3.17;;
815;SDS011;25928;51.062;13.752;2023-04-01T22:54:32;3.87;;;3.47;;
815;SDS011;25928;51.062;13.752;2023-04-01T22:57:08;4.23;;;3.17;;
815;SDS011;25928;51.062;13.752;2023-04-01T23:02:28;3.77;;;3.37;;
815;SDS011;25928;51.062;13.752;2023-04-01T23:04:59;3.60;;;3.10;;
815;SDS011;25928;51.062;13.752;2023-04-01T23:07:48;5.37;;;3.40;;
815;SDS011;25928;51.062;13.752;2023-04-01T23:10:47;3.90;;;3.50;;
815;SDS011;25928;51.062;13.752;2023-04-01T23:13:22;3.93;;;3.53;;
815;SDS011;25928;51.062;13.752;2023-04-01T23:15:54;4.23;;;3.27;;
815;SDS011;25928;51.062;13.752;2023-04-01T23:26:08;4.73;;;4.00;;
815;SDS011;25928;51.062;13.752;2023-04-01T23:28:40;4.97;;;3.90;;
815;SDS011;25928;51.062;13.752;2023-04-01T23:34:21;4.70;;;3.57;;
815;SDS011;25928;51.062;13.752;2023-04-01T23:37:05;3.80;;;3.50;;
815;SDS011;25928;51.062;13.752;2023-04-01T23:39:36;4.47;;;3.50;;
815;SDS011;25928;51.062;13.752;2023-04-01T23:42:19;4.40;;;4.00;;
815;SDS011;25928;51.062;13.752;2023-04-01T23:44:46;4.70;;;3.40;;
815;SDS011;25928;51.062;13.752;2023-04-01T23:47:18;4.30;;;3.90;;
815;SDS011;25928;51.062;13.752;2023-04-01T23:49:58;4.50;;;3.67;;
815;SDS011;25928;51.062;13.752;2023-04-01T23:52:49;4.30;;;3.90;;
815;SDS011;25928;51.062;13.752;2023-04-01T23:55:24;5.03;;;4.37;;
